createdAt,value
2018-09-18T00:01:27.908Z,99.90
2018-09-18T00:03:56.351Z,99.90
2018-09-18T00:06:24.806Z,99.90
2018-09-18T00:08:53.220Z,99.90
2018-09-18T00:11:21.672Z,99.90
2018-09-18T00:13:50.104Z,99.90
2018-09-18T00:16:18.604Z,99.90
2018-09-18T00:18:47.033Z,99.90
2018-09-18T00:21:16.296Z,99.90
2018-09-18T00:23:44.781Z,99.90
2018-09-18T00:26:13.216Z,99.90
2018-09-18T00:28:41.709Z,99.90
2018-09-18T00:31:10.865Z,99.90
2018-09-18T00:33:39.340Z,99.90
2018-09-18T00:36:07.805Z,99.90
2018-09-18T00:38:37.849Z,99.90
2018-09-18T00:41:06.320Z,99.90
2018-09-18T00:43:34.811Z,99.90
2018-09-18T00:46:03.287Z,99.90
2018-09-18T00:48:31.767Z,99.90
2018-09-18T00:51:00.252Z,99.90
2018-09-18T00:53:28.767Z,99.90
2018-09-18T00:55:57.230Z,99.90
2018-09-18T00:58:25.695Z,99.90
2018-09-18T01:00:54.144Z,99.90
2018-09-18T01:03:22.571Z,99.90
2018-09-18T01:05:50.992Z,99.90
2018-09-18T01:08:19.447Z,99.90
2018-09-18T01:10:47.883Z,99.90
2018-09-18T01:13:16.307Z,99.90
2018-09-18T01:15:44.711Z,99.90
2018-09-18T01:18:13.147Z,99.90
2018-09-18T01:20:41.576Z,99.90
2018-09-18T01:23:10.199Z,99.90
2018-09-18T01:25:38.590Z,99.90
2018-09-18T01:28:06.986Z,99.90
2018-09-18T01:30:35.425Z,99.90
2018-09-18T01:33:03.823Z,99.90
2018-09-18T01:35:32.240Z,99.90
2018-09-18T01:38:00.632Z,99.90
2018-09-18T01:40:29.073Z,99.90
2018-09-18T01:42:57.477Z,99.90
2018-09-18T01:45:25.887Z,99.90
2018-09-18T01:47:54.292Z,99.90
2018-09-18T01:50:22.711Z,99.90
2018-09-18T01:52:51.111Z,99.90
2018-09-18T01:55:19.534Z,99.90
2018-09-18T01:57:47.944Z,99.90
2018-09-18T02:00:16.419Z,99.90
2018-09-18T02:02:44.815Z,99.90
2018-09-18T02:05:13.251Z,99.90
2018-09-18T02:07:41.660Z,99.90
2018-09-18T02:10:10.087Z,99.90
2018-09-18T02:12:38.499Z,99.90
2018-09-18T02:15:09.073Z,99.90
2018-09-18T02:17:37.504Z,99.90
2018-09-18T02:20:06.428Z,99.90
2018-09-18T02:22:34.882Z,99.90
2018-09-18T02:25:03.384Z,99.90
2018-09-18T02:27:31.836Z,99.90
2018-09-18T02:30:00.263Z,99.90
2018-09-18T02:32:28.655Z,99.90
2018-09-18T02:34:57.089Z,99.90
2018-09-18T02:37:25.546Z,99.90
2018-09-18T02:39:53.976Z,99.90
2018-09-18T02:42:22.517Z,99.90
2018-09-18T02:44:51.356Z,99.90
2018-09-18T02:47:19.778Z,99.90
2018-09-18T02:49:48.723Z,99.90
2018-09-18T02:52:17.645Z,99.90
2018-09-18T02:54:46.041Z,99.90
2018-09-18T02:57:14.481Z,99.90
2018-09-18T02:59:42.927Z,99.90
2018-09-18T03:02:12.448Z,99.90
2018-09-18T03:04:40.875Z,99.90
2018-09-18T03:07:09.740Z,99.90
2018-09-18T03:09:38.166Z,99.90
2018-09-18T03:12:06.606Z,99.90
2018-09-18T03:14:35.042Z,99.90
2018-09-18T03:17:03.496Z,99.90
2018-09-18T03:19:31.920Z,99.90
2018-09-18T03:22:00.820Z,99.90
2018-09-18T03:24:29.245Z,99.90
2018-09-18T03:26:57.688Z,99.90
2018-09-18T03:29:26.103Z,99.90
2018-09-18T03:31:54.528Z,99.90
2018-09-18T03:34:22.952Z,99.90
2018-09-18T03:36:51.476Z,99.90
2018-09-18T03:39:20.157Z,99.90
2018-09-18T03:41:48.572Z,99.90
2018-09-18T03:44:16.970Z,99.90
2018-09-18T03:46:45.468Z,99.90
2018-09-18T03:49:13.863Z,99.90
2018-09-18T03:51:42.276Z,99.90
2018-09-18T03:54:10.684Z,99.90
2018-09-18T03:56:39.118Z,99.90
2018-09-18T03:59:07.540Z,99.90
2018-09-18T04:01:35.961Z,99.90
2018-09-18T04:04:04.421Z,99.90
2018-09-18T04:06:32.828Z,99.90
2018-09-18T04:09:01.250Z,99.90
2018-09-18T04:11:29.645Z,99.90
2018-09-18T04:13:58.059Z,99.90
2018-09-18T04:16:26.480Z,99.90
2018-09-18T04:18:54.905Z,99.90
2018-09-18T04:21:27.519Z,99.90
2018-09-18T04:23:55.941Z,99.90
2018-09-18T04:26:24.354Z,99.90
2018-09-18T04:28:52.788Z,99.90
2018-09-18T04:31:21.184Z,99.90
2018-09-18T04:33:52.637Z,99.90
2018-09-18T04:36:21.072Z,99.90
2018-09-18T04:38:49.592Z,99.90
2018-09-18T04:41:17.984Z,99.90
2018-09-18T04:43:46.387Z,99.90
2018-09-18T04:46:14.803Z,99.90
2018-09-18T04:48:43.226Z,99.90
2018-09-18T04:51:11.624Z,99.90
2018-09-18T04:53:40.068Z,99.90
2018-09-18T04:56:08.462Z,99.90
2018-09-18T04:58:36.865Z,99.90
2018-09-18T05:01:05.456Z,99.90
2018-09-18T05:03:34.901Z,99.90
2018-09-18T05:06:03.357Z,99.90
2018-09-18T05:08:31.827Z,99.90
2018-09-18T05:11:00.272Z,99.90
2018-09-18T05:13:28.669Z,99.90
2018-09-18T05:15:57.088Z,99.90
2018-09-18T05:18:25.489Z,99.90
2018-09-18T05:20:53.895Z,99.90
2018-09-18T05:23:22.344Z,99.90
2018-09-18T05:25:50.976Z,99.90
2018-09-18T05:28:19.383Z,99.90
2018-09-18T05:30:47.860Z,99.90
2018-09-18T05:33:16.252Z,99.90
2018-09-18T05:35:44.673Z,99.90
2018-09-18T05:38:13.068Z,99.90
2018-09-18T05:40:41.511Z,99.90
2018-09-18T05:43:09.921Z,99.90
2018-09-18T05:45:38.341Z,99.90
2018-09-18T05:48:06.839Z,99.90
2018-09-18T05:50:35.267Z,99.90
2018-09-18T05:53:03.673Z,99.90
2018-09-18T05:55:32.099Z,99.90
2018-09-18T05:58:00.505Z,99.90
2018-09-18T06:00:29.000Z,98.00
2018-09-18T06:02:57.428Z,96.50
2018-09-18T06:05:25.851Z,95.70
2018-09-18T06:07:55.747Z,94.70
2018-09-18T06:10:24.249Z,93.60
2018-09-18T06:12:52.667Z,92.40
2018-09-18T06:15:21.216Z,91.00
2018-09-18T06:17:49.615Z,90.50
2018-09-18T06:20:18.576Z,89.30
2018-09-18T06:22:47.053Z,87.30
2018-09-18T06:25:15.471Z,86.20
2018-09-18T06:27:44.111Z,83.80
2018-09-18T06:30:12.568Z,82.30
2018-09-18T06:32:41.003Z,80.10
2018-09-18T06:35:09.492Z,78.10
2018-09-18T06:37:37.908Z,76.20
2018-09-18T06:40:06.387Z,75.50
2018-09-18T06:42:34.964Z,74.80
2018-09-18T06:45:03.404Z,73.20
2018-09-18T06:47:31.851Z,71.70
2018-09-18T06:50:00.263Z,71.00
2018-09-18T06:52:28.684Z,70.50
2018-09-18T06:54:57.125Z,70.20
2018-09-18T06:57:28.721Z,71.00
2018-09-18T06:59:57.207Z,69.60
2018-09-18T07:02:25.680Z,67.30
2018-09-18T07:04:54.104Z,68.00
2018-09-18T07:07:22.550Z,66.50
2018-09-18T07:09:50.968Z,67.60
2018-09-18T07:12:19.432Z,67.00
2018-09-18T07:14:47.884Z,67.00
2018-09-18T07:17:16.305Z,67.70
2018-09-18T07:19:44.792Z,67.50
2018-09-18T07:22:13.228Z,65.00
2018-09-18T07:24:41.678Z,64.90
2018-09-18T07:27:10.098Z,64.90
2018-09-18T07:29:38.741Z,67.90
2018-09-18T07:32:07.180Z,67.20
2018-09-18T07:34:35.657Z,68.60
2018-09-18T07:37:04.156Z,68.80
2018-09-18T07:39:32.597Z,68.10
2018-09-18T07:42:01.069Z,66.90
2018-09-18T07:44:29.895Z,66.50
2018-09-18T07:46:58.389Z,65.60
2018-09-18T07:49:26.856Z,65.30
2018-09-18T07:51:55.262Z,63.00
2018-09-18T07:54:23.713Z,62.50
2018-09-18T07:56:52.180Z,61.50
2018-09-18T07:59:20.636Z,60.60
2018-09-18T08:01:49.039Z,61.00
2018-09-18T08:04:17.505Z,61.30
2018-09-18T08:06:46.014Z,61.70
2018-09-18T08:09:14.692Z,61.40
2018-09-18T08:11:43.984Z,61.10
2018-09-18T08:14:12.463Z,60.30
2018-09-18T08:16:40.872Z,60.60
2018-09-18T08:19:09.343Z,60.70
2018-09-18T08:21:37.749Z,61.50
2018-09-18T08:24:06.468Z,59.70
2018-09-18T08:26:34.905Z,59.70
2018-09-18T08:29:03.335Z,60.10
2018-09-18T08:31:31.798Z,59.80
2018-09-18T08:34:00.667Z,58.70
2018-09-18T08:36:29.177Z,58.90
2018-09-18T08:38:57.630Z,57.90
2018-09-18T08:41:26.086Z,58.50
2018-09-18T08:43:54.516Z,58.10
2018-09-18T08:46:22.931Z,57.20
2018-09-18T08:48:55.396Z,57.70
2018-09-18T08:51:23.859Z,57.60
2018-09-18T08:53:52.273Z,58.10
2018-09-18T08:56:20.711Z,57.80
2018-09-18T08:58:49.602Z,57.40
2018-09-18T09:01:19.137Z,56.90
2018-09-18T09:03:47.595Z,56.90
2018-09-18T09:06:16.075Z,57.00
2018-09-18T09:08:44.604Z,58.20
2018-09-18T09:11:13.014Z,57.40
2018-09-18T09:13:41.468Z,57.30
2018-09-18T09:16:09.940Z,57.60
2018-09-18T09:18:38.503Z,57.20
2018-09-18T09:21:06.981Z,57.00
2018-09-18T09:23:35.361Z,57.40
2018-09-18T09:26:03.841Z,58.10
2018-09-18T09:28:32.746Z,58.00
2018-09-18T09:31:01.321Z,58.10
2018-09-18T09:33:29.799Z,58.00
2018-09-18T09:35:58.360Z,57.80
2018-09-18T09:38:26.781Z,57.40
2018-09-18T09:40:55.204Z,57.10
2018-09-18T09:43:23.645Z,56.60
2018-09-18T09:45:52.225Z,56.80
2018-09-18T09:48:20.705Z,57.70
2018-09-18T09:50:51.602Z,56.90
2018-09-18T09:53:20.059Z,57.60
2018-09-18T09:55:49.365Z,57.50
2018-09-18T09:58:20.380Z,56.20
2018-09-18T10:00:54.958Z,56.70
2018-09-18T10:03:23.429Z,54.90
2018-09-18T10:05:51.839Z,54.30
2018-09-18T10:08:20.270Z,53.40
2018-09-18T10:10:48.861Z,52.80
2018-09-18T10:13:17.134Z,53.10
2018-09-18T10:15:45.630Z,52.60
2018-09-18T10:18:14.153Z,52.90
2018-09-18T10:20:42.522Z,52.50
2018-09-18T10:23:10.957Z,53.00
2018-09-18T10:25:39.377Z,52.80
2018-09-18T10:28:07.832Z,53.20
2018-09-18T10:30:36.275Z,52.00
2018-09-18T10:33:04.781Z,52.20
2018-09-18T10:35:33.212Z,51.40
2018-09-18T10:38:01.660Z,51.30
2018-09-18T10:40:30.113Z,51.50
2018-09-18T10:42:58.689Z,51.30
2018-09-18T10:45:27.086Z,50.50
2018-09-18T10:47:55.538Z,50.50
2018-09-18T10:50:23.992Z,50.70
2018-09-18T10:52:52.469Z,51.90
2018-09-18T10:55:20.947Z,51.50
2018-09-18T10:57:49.416Z,51.80
2018-09-18T11:00:17.885Z,51.00
2018-09-18T11:02:46.307Z,51.30
2018-09-18T11:05:14.737Z,51.70
2018-09-18T11:07:43.294Z,51.60
2018-09-18T11:10:11.992Z,51.80
2018-09-18T11:12:40.499Z,51.50
2018-09-18T11:15:08.973Z,51.00
2018-09-18T11:17:37.398Z,50.60
2018-09-18T11:20:06.054Z,49.70
2018-09-18T11:22:34.461Z,52.60
2018-09-18T11:25:02.883Z,54.00
2018-09-18T11:27:31.279Z,53.50
2018-09-18T11:29:59.722Z,53.00
2018-09-18T11:32:28.163Z,52.10
2018-09-18T11:34:56.641Z,51.40
2018-09-18T11:37:25.032Z,51.50
2018-09-18T11:39:53.453Z,52.30
2018-09-18T11:42:21.873Z,52.30
2018-09-18T11:44:50.288Z,53.60
2018-09-18T11:47:18.789Z,52.50
2018-09-18T11:49:47.197Z,52.10
2018-09-18T11:52:15.634Z,51.70
2018-09-18T11:54:44.076Z,51.70
2018-09-18T11:57:13.037Z,51.80
2018-09-18T11:59:41.478Z,52.10
2018-09-18T12:02:09.960Z,52.70
2018-09-18T12:04:38.400Z,53.50
2018-09-18T12:07:06.820Z,54.20
2018-09-18T12:09:35.232Z,54.90
2018-09-18T12:12:03.675Z,54.40
2018-09-18T12:14:32.139Z,53.70
2018-09-18T12:17:00.591Z,54.20
2018-09-18T12:19:29.014Z,55.10
2018-09-18T12:21:57.456Z,54.60
2018-09-18T12:24:27.219Z,54.80
2018-09-18T12:26:55.643Z,54.50
2018-09-18T12:29:24.457Z,55.00
2018-09-18T12:31:52.937Z,55.20
2018-09-18T12:34:21.548Z,54.60
2018-09-18T12:36:50.039Z,54.30
2018-09-18T12:39:18.423Z,53.70
2018-09-18T12:41:46.871Z,53.70
2018-09-18T12:44:15.318Z,53.50
2018-09-18T12:46:43.745Z,54.40
2018-09-18T12:49:12.217Z,54.30
2018-09-18T12:51:40.638Z,54.20
2018-09-18T12:54:09.138Z,53.80
2018-09-18T12:56:37.510Z,54.40
2018-09-18T12:59:06.351Z,54.20
2018-09-18T13:01:34.756Z,54.00
2018-09-18T13:04:04.516Z,54.20
2018-09-18T13:06:33.117Z,54.50
2018-09-18T13:09:01.376Z,54.40
2018-09-18T13:11:31.305Z,53.90
2018-09-18T13:13:59.856Z,53.80
2018-09-18T13:16:28.205Z,54.40
2018-09-18T13:18:56.655Z,54.90
2018-09-18T13:21:25.099Z,55.10
2018-09-18T13:23:53.532Z,55.20
2018-09-18T13:26:21.948Z,54.60
2018-09-18T13:28:50.342Z,54.10
2018-09-18T13:31:18.769Z,53.90
2018-09-18T13:33:47.540Z,54.10
2018-09-18T13:36:16.012Z,54.30
2018-09-18T13:38:44.440Z,53.90
2018-09-18T13:41:12.951Z,54.00
2018-09-18T13:43:41.312Z,53.90
2018-09-18T13:46:10.295Z,53.80
2018-09-18T13:48:38.709Z,54.00
2018-09-18T13:51:07.312Z,54.30
2018-09-18T13:53:35.744Z,54.50
2018-09-18T13:56:04.264Z,54.00
2018-09-18T13:58:32.647Z,54.70
2018-09-18T14:01:05.049Z,54.30
2018-09-18T14:03:33.522Z,54.10
2018-09-18T14:06:01.983Z,54.50
2018-09-18T14:08:30.417Z,54.50
2018-09-18T14:10:58.877Z,55.20
2018-09-18T14:13:27.438Z,54.30
2018-09-18T14:15:55.883Z,54.80
2018-09-18T14:18:24.307Z,55.20
2018-09-18T14:20:52.761Z,55.20
2018-09-18T14:23:21.180Z,55.50
2018-09-18T14:25:49.627Z,55.70
2018-09-18T14:28:18.061Z,55.50
2018-09-18T14:30:47.525Z,56.00
2018-09-18T14:33:16.932Z,55.90
2018-09-18T14:35:45.429Z,55.70
2018-09-18T14:38:13.910Z,55.60
2018-09-18T14:40:42.333Z,56.10
2018-09-18T14:43:10.776Z,56.10
2018-09-18T14:45:39.210Z,56.30
2018-09-18T14:48:07.659Z,56.90
2018-09-18T14:50:36.296Z,57.00
2018-09-18T14:53:05.104Z,56.30
2018-09-18T14:55:33.580Z,56.60
2018-09-18T14:58:02.471Z,56.70
2018-09-18T15:00:30.931Z,55.90
2018-09-18T15:02:59.387Z,56.20
2018-09-18T15:05:27.816Z,56.60
2018-09-18T15:07:56.307Z,55.60
2018-09-18T15:10:24.736Z,56.40
2018-09-18T15:12:53.291Z,56.30
2018-09-18T15:15:21.735Z,56.80
2018-09-18T15:17:50.191Z,56.90
2018-09-18T15:20:18.633Z,57.40
2018-09-18T15:22:47.096Z,57.30
2018-09-18T15:25:15.532Z,56.80
2018-09-18T15:27:43.987Z,56.40
2018-09-18T15:30:12.441Z,56.70
2018-09-18T15:32:40.883Z,56.60
2018-09-18T15:35:09.369Z,56.40
2018-09-18T15:37:37.798Z,56.70
2018-09-18T15:40:06.327Z,57.60
2018-09-18T15:42:34.697Z,58.10
2018-09-18T15:45:03.181Z,57.50
2018-09-18T15:47:31.595Z,57.60
2018-09-18T15:50:00.064Z,57.60
2018-09-18T15:52:28.496Z,57.40
2018-09-18T15:54:56.939Z,57.40
2018-09-18T15:57:25.348Z,57.50
2018-09-18T15:59:53.819Z,57.90
2018-09-18T16:02:22.238Z,57.70
2018-09-18T16:04:50.678Z,57.50
2018-09-18T16:07:19.115Z,58.00
2018-09-18T16:09:47.611Z,58.10
2018-09-18T16:12:16.000Z,58.50
2018-09-18T16:14:44.523Z,59.00
2018-09-18T16:17:12.888Z,59.40
2018-09-18T16:19:41.340Z,59.30
2018-09-18T16:22:09.761Z,59.70
2018-09-18T16:24:38.215Z,59.80
2018-09-18T16:27:06.672Z,59.40
2018-09-18T16:29:35.156Z,60.10
2018-09-18T16:32:03.634Z,60.70
2018-09-18T16:34:32.061Z,61.30
2018-09-18T16:37:00.531Z,61.60
2018-09-18T16:39:28.951Z,62.20
2018-09-18T16:41:57.396Z,62.90
2018-09-18T16:44:25.827Z,63.40
2018-09-18T16:46:54.599Z,64.30
2018-09-18T16:49:23.041Z,65.00
2018-09-18T16:51:51.512Z,65.60
2018-09-18T16:54:20.002Z,67.40
2018-09-18T16:56:48.404Z,69.70
2018-09-18T16:59:16.835Z,70.30
2018-09-18T17:01:45.293Z,70.90
2018-09-18T17:04:13.728Z,71.50
2018-09-18T17:06:42.293Z,71.40
2018-09-18T17:09:10.625Z,71.90
2018-09-18T17:11:39.082Z,72.20
2018-09-18T17:14:07.517Z,73.20
2018-09-18T17:16:36.050Z,74.50
2018-09-18T17:19:04.442Z,75.10
2018-09-18T17:21:32.888Z,75.80
2018-09-18T17:24:01.371Z,75.50
2018-09-18T17:26:29.844Z,75.90
2018-09-18T17:28:58.366Z,78.90
2018-09-18T17:31:26.729Z,80.80
2018-09-18T17:33:55.154Z,81.40
2018-09-18T17:36:23.608Z,82.20
2018-09-18T17:38:52.027Z,81.60
2018-09-18T17:41:20.475Z,82.40
2018-09-18T17:43:48.912Z,83.30
2018-09-18T17:46:17.341Z,83.50
2018-09-18T17:48:45.777Z,84.00
2018-09-18T17:51:14.215Z,81.10
2018-09-18T17:53:42.718Z,82.50
2018-09-18T17:56:11.359Z,83.70
2018-09-18T17:58:39.801Z,85.80
2018-09-18T18:01:08.246Z,86.50
2018-09-18T18:03:37.736Z,87.20
2018-09-18T18:06:06.162Z,87.50
2018-09-18T18:08:34.645Z,87.70
2018-09-18T18:11:03.080Z,88.30
2018-09-18T18:13:31.520Z,89.20
2018-09-18T18:15:59.944Z,90.10
2018-09-18T18:18:28.397Z,90.20
2018-09-18T18:20:56.859Z,90.10
2018-09-18T18:23:25.390Z,90.10
2018-09-18T18:25:53.773Z,90.50
2018-09-18T18:28:22.219Z,91.10
2018-09-18T18:30:50.639Z,90.40
2018-09-18T18:33:19.135Z,90.40
2018-09-18T18:35:47.542Z,90.40
2018-09-18T18:38:16.006Z,91.10
2018-09-18T18:40:44.485Z,92.00
2018-09-18T18:43:12.889Z,92.20
2018-09-18T18:45:41.335Z,92.40
2018-09-18T18:48:09.937Z,92.60
2018-09-18T18:50:38.235Z,91.60
2018-09-18T18:53:06.665Z,90.70
2018-09-18T18:55:35.117Z,91.00
2018-09-18T18:58:03.534Z,90.80
2018-09-18T19:00:32.047Z,91.50
2018-09-18T19:03:00.414Z,93.70
2018-09-18T19:05:28.832Z,92.70
2018-09-18T19:07:57.239Z,92.20
2018-09-18T19:10:25.679Z,92.50
2018-09-18T19:12:54.087Z,93.00
2018-09-18T19:15:22.510Z,93.00
2018-09-18T19:17:50.914Z,94.30
2018-09-18T19:20:19.333Z,93.10
2018-09-18T19:22:47.749Z,93.40
2018-09-18T19:25:16.193Z,95.30
2018-09-18T19:27:44.655Z,95.90
2018-09-18T19:30:13.123Z,96.40
2018-09-18T19:32:41.563Z,96.70
2018-09-18T19:35:09.996Z,97.00
2018-09-18T19:37:38.488Z,97.30
2018-09-18T19:40:06.954Z,96.00
2018-09-18T19:42:35.381Z,96.40
2018-09-18T19:45:03.827Z,95.30
2018-09-18T19:47:32.271Z,95.70
2018-09-18T19:50:00.684Z,96.30
2018-09-18T19:52:29.991Z,96.30
2018-09-18T19:54:58.444Z,97.40
2018-09-18T19:57:27.432Z,97.80
2018-09-18T19:59:56.697Z,98.50
2018-09-18T20:02:26.678Z,98.90
2018-09-18T20:04:56.456Z,99.90
2018-09-18T20:07:24.880Z,99.90
2018-09-18T20:09:53.293Z,99.90
2018-09-18T20:12:21.734Z,99.90
2018-09-18T20:14:50.172Z,99.90
2018-09-18T20:17:18.572Z,99.90
2018-09-18T20:19:47.032Z,99.90
2018-09-18T20:22:15.437Z,99.90
2018-09-18T20:24:43.908Z,99.90
2018-09-18T20:27:12.314Z,99.90
2018-09-18T20:29:40.864Z,99.90
2018-09-18T20:32:09.232Z,99.90
2018-09-18T20:34:37.677Z,99.90
2018-09-18T20:37:06.162Z,99.90
2018-09-18T20:39:34.601Z,99.90
2018-09-18T20:42:03.057Z,99.90
2018-09-18T20:44:32.432Z,99.90
2018-09-18T20:47:00.917Z,99.90
2018-09-18T20:49:29.463Z,99.90
2018-09-18T20:51:57.892Z,99.90
2018-09-18T20:54:26.518Z,99.90
2018-09-18T20:56:54.963Z,99.90
2018-09-18T20:59:23.419Z,99.90
2018-09-18T21:01:51.895Z,99.90
2018-09-18T21:04:20.332Z,99.90
2018-09-18T21:06:48.753Z,99.90
2018-09-18T21:09:17.227Z,99.90
2018-09-18T21:11:45.693Z,99.90
2018-09-18T21:14:14.132Z,99.90
2018-09-18T21:16:42.559Z,99.90
2018-09-18T21:19:11.027Z,99.90
2018-09-18T21:21:39.443Z,99.90
2018-09-18T21:24:07.905Z,99.90
2018-09-18T21:26:36.345Z,99.90
2018-09-18T21:29:04.787Z,99.90
2018-09-18T21:31:33.215Z,99.90
2018-09-18T21:34:01.674Z,99.90
2018-09-18T21:36:30.131Z,99.90
2018-09-18T21:38:58.566Z,99.90
2018-09-18T21:41:26.977Z,99.90
2018-09-18T21:43:55.420Z,99.90
2018-09-18T21:46:23.853Z,99.90
2018-09-18T21:48:52.263Z,99.90
2018-09-18T21:51:20.712Z,99.90
2018-09-18T21:53:49.136Z,99.90
2018-09-18T21:56:17.594Z,99.90
2018-09-18T21:58:46.069Z,99.90
2018-09-18T22:01:14.844Z,99.90
2018-09-18T22:03:43.281Z,99.90
2018-09-18T22:06:11.732Z,99.90
2018-09-18T22:08:40.167Z,99.90
2018-09-18T22:11:08.616Z,99.90
2018-09-18T22:13:37.033Z,99.90
2018-09-18T22:16:05.512Z,99.90
2018-09-18T22:18:33.980Z,99.90
2018-09-18T22:21:02.426Z,99.90
2018-09-18T22:23:30.853Z,99.90
2018-09-18T22:25:59.294Z,99.90
2018-09-18T22:28:27.725Z,99.90
2018-09-18T22:30:56.167Z,99.90
2018-09-18T22:33:24.592Z,99.90
2018-09-18T22:35:53.041Z,99.90
2018-09-18T22:38:21.447Z,99.90
2018-09-18T22:40:49.970Z,99.90
2018-09-18T22:43:18.425Z,99.90
2018-09-18T22:45:46.901Z,99.90
2018-09-18T22:48:15.361Z,99.90
2018-09-18T22:50:43.775Z,99.90
2018-09-18T22:53:12.217Z,99.90
2018-09-18T22:55:41.561Z,99.90
2018-09-18T22:58:10.036Z,99.90
2018-09-18T23:00:38.512Z,99.90
2018-09-18T23:03:06.928Z,99.90
2018-09-18T23:05:41.065Z,99.90
2018-09-18T23:08:09.480Z,99.90
2018-09-18T23:10:37.890Z,99.90
2018-09-18T23:13:06.324Z,99.90
2018-09-18T23:15:34.743Z,99.90
2018-09-18T23:18:04.156Z,99.90
2018-09-18T23:20:32.607Z,99.90
2018-09-18T23:23:01.041Z,99.90
2018-09-18T23:25:31.165Z,99.90
2018-09-18T23:27:59.640Z,99.90
2018-09-18T23:30:28.148Z,99.90
2018-09-18T23:32:56.605Z,99.90
2018-09-18T23:35:25.021Z,99.90
2018-09-18T23:37:53.438Z,99.90
2018-09-18T23:40:21.834Z,99.90
2018-09-18T23:42:50.255Z,99.90
2018-09-18T23:45:18.704Z,99.90
2018-09-18T23:47:47.117Z,99.90
2018-09-18T23:50:15.643Z,99.90
2018-09-18T23:52:44.112Z,99.90
2018-09-18T23:55:12.580Z,99.90
2018-09-18T23:57:40.978Z,99.90
